createdAt,value
2023-03-27T00:00:21.052Z,1.51
2023-03-27T00:01:20.756Z,1.51
2023-03-27T00:02:20.651Z,1.39
2023-03-27T00:03:20.675Z,1.35
2023-03-27T00:04:20.567Z,1.37
2023-03-27T00:05:21.006Z,1.29
2023-03-27T00:06:20.904Z,1.3
2023-03-27T00:07:20.672Z,1.22
2023-03-27T00:08:20.591Z,1.37
2023-03-27T00:09:20.801Z,1.38
2023-03-27T00:10:20.730Z,1.38
2023-03-27T00:11:21.245Z,1.4
2023-03-27T00:12:20.704Z,1.26
2023-03-27T00:13:20.948Z,1.23
2023-03-27T00:14:20.707Z,1.17
2023-03-27T00:15:21.387Z,1.01
2023-03-27T00:16:21.995Z,1.16
2023-03-27T00:17:20.742Z,1.24
2023-03-27T00:18:20.808Z,1.23
2023-03-27T00:19:21.170Z,1.2
2023-03-27T00:20:22.454Z,1.24
2023-03-27T00:21:21.000Z,1.29
2023-03-27T00:22:20.817Z,1.39
2023-03-27T00:23:20.887Z,1.43
2023-03-27T00:24:20.847Z,1.41
2023-03-27T00:25:21.564Z,1.5
2023-03-27T00:26:20.924Z,1.65
2023-03-27T00:27:20.969Z,1.67
2023-03-27T00:28:20.970Z,1.77
2023-03-27T00:29:20.930Z,2.01
2023-03-27T00:30:22.092Z,1.93
2023-03-27T00:31:21.501Z,2.1
2023-03-27T00:32:21.465Z,2.05
2023-03-27T00:33:21.783Z,2.02
2023-03-27T00:34:21.466Z,2
2023-03-27T00:35:22.358Z,2.08
2023-03-27T00:36:21.559Z,1.88
2023-03-27T00:37:21.770Z,1.99
2023-03-27T00:38:21.557Z,2
2023-03-27T00:39:21.619Z,1.95
2023-03-27T00:40:21.590Z,1.77
2023-03-27T00:41:22.145Z,1.83
2023-03-27T00:42:22.228Z,1.97
2023-03-27T00:43:23.452Z,2.09
2023-03-27T00:44:29.562Z,2.05
2023-03-27T00:45:31.524Z,1.99
2023-03-27T00:46:32.828Z,1.95
2023-03-27T00:47:31.365Z,1.97
2023-03-27T00:48:31.127Z,2
2023-03-27T00:49:31.596Z,2.02
2023-03-27T00:50:34.317Z,2.07
2023-03-27T00:51:30.889Z,2.05
2023-03-27T00:52:31.137Z,2.05
2023-03-27T00:53:30.839Z,2.11
2023-03-27T00:54:33.389Z,2.13
2023-03-27T00:55:32.720Z,1.9
2023-03-27T00:56:30.710Z,1.83
2023-03-27T00:57:30.879Z,1.81
2023-03-27T00:58:38.504Z,1.73
2023-03-27T00:59:38.964Z,1.69
2023-03-27T01:00:35.841Z,1.76
2023-03-27T01:01:36.032Z,1.9
2023-03-27T01:02:35.336Z,1.79
2023-03-27T01:03:35.381Z,1.81
2023-03-27T01:04:36.439Z,1.81
2023-03-27T01:05:36.335Z,1.8
2023-03-27T01:06:35.734Z,1.95
2023-03-27T01:07:36.452Z,1.9
2023-03-27T01:08:35.364Z,1.95
2023-03-27T01:09:35.332Z,1.89
2023-03-27T01:15:58.759Z,1.7
2023-03-27T01:26:14.262Z,1.75
2023-03-27T01:30:18.642Z,1.67
2023-03-27T01:39:47.676Z,1.51
2023-03-27T01:40:57.752Z,1.44
2023-03-27T01:46:00.570Z,1.59
2023-03-27T01:47:02.031Z,1.68
2023-03-27T01:48:02.797Z,1.57
2023-03-27T01:49:08.209Z,1.43
2023-03-27T01:50:08.635Z,1.51
2023-03-27T01:52:04.514Z,1.52
2023-03-27T01:53:04.923Z,1.53
2023-03-27T01:54:11.426Z,1.61
2023-03-27T01:55:10.874Z,1.67
2023-03-27T01:56:16.101Z,1.6
2023-03-27T01:58:19.026Z,1.67
2023-03-27T01:59:18.029Z,1.62
2023-03-27T02:00:19.891Z,1.59
2023-03-27T02:01:20.765Z,1.68
2023-03-27T02:02:24.406Z,1.68
2023-03-27T02:03:24.166Z,1.66
2023-03-27T02:04:24.545Z,1.67
2023-03-27T02:06:28.577Z,1.69
2023-03-27T02:07:28.760Z,1.65
2023-03-27T02:08:36.412Z,1.61
2023-03-27T02:09:36.945Z,1.66
2023-03-27T02:10:31.686Z,1.66
2023-03-27T02:11:30.681Z,1.7
2023-03-27T02:12:33.124Z,1.74
2023-03-27T02:13:37.241Z,1.69
2023-03-27T02:14:39.178Z,1.7
2023-03-27T02:15:40.107Z,1.71
2023-03-27T02:16:40.137Z,1.74
2023-03-27T02:17:39.750Z,1.77
2023-03-27T02:18:38.504Z,1.78
2023-03-27T02:19:39.723Z,1.77
2023-03-27T02:20:38.110Z,1.76
2023-03-27T02:21:37.160Z,1.72
2023-03-27T02:22:40.193Z,1.69
2023-03-27T02:23:37.029Z,1.71
2023-03-27T02:24:37.079Z,1.73
2023-03-27T02:25:38.466Z,1.73
2023-03-27T02:26:37.647Z,1.71
2023-03-27T02:27:45.928Z,1.73
2023-03-27T02:46:31.769Z,1.79
2023-03-27T02:47:33.246Z,1.79
2023-03-27T02:48:32.851Z,1.76
2023-03-27T02:49:33.833Z,1.77
2023-03-27T02:50:34.019Z,1.73
2023-03-27T02:52:36.349Z,1.69
2023-03-27T02:53:36.992Z,1.73
2023-03-27T02:54:36.385Z,1.73
2023-03-27T02:55:42.592Z,1.74
2023-03-27T02:56:36.919Z,1.74
2023-03-27T02:57:36.296Z,1.79
2023-03-27T02:58:37.082Z,1.82
2023-03-27T02:59:38.251Z,1.86
2023-03-27T03:00:38.382Z,1.86
2023-03-27T03:01:36.394Z,1.89
2023-03-27T03:02:35.520Z,1.9
2023-03-27T03:04:40.642Z,1.92
2023-03-27T03:05:37.688Z,1.92
2023-03-27T03:06:37.781Z,1.93
2023-03-27T03:07:37.734Z,1.93
2023-03-27T03:08:38.583Z,1.95
2023-03-27T03:09:40.343Z,1.99
2023-03-27T03:10:44.476Z,2.01
2023-03-27T03:11:51.156Z,2.03
2023-03-27T03:12:42.843Z,2.05
2023-03-27T03:13:42.818Z,2.07
2023-03-27T03:14:43.490Z,2.05
2023-03-27T03:15:43.595Z,2.04
2023-03-27T03:16:42.962Z,2.05
2023-03-27T03:17:43.005Z,2.06
2023-03-27T03:18:42.919Z,2.07
2023-03-27T03:19:42.949Z,2.09
2023-03-27T03:20:42.932Z,2.09
2023-03-27T03:21:43.015Z,2.1
2023-03-27T03:22:42.992Z,2.1
2023-03-27T03:23:42.979Z,2.08
2023-03-27T03:24:45.382Z,2.11
2023-03-27T03:25:45.328Z,2.1
2023-03-27T03:26:45.381Z,2.08
2023-03-27T03:27:45.396Z,2.05
2023-03-27T03:29:01.329Z,2.05
2023-03-27T03:29:48.374Z,2.02
2023-03-27T03:30:48.730Z,2.03
2023-03-27T03:31:48.433Z,2.02
2023-03-27T03:32:48.478Z,2.02
2023-03-27T03:33:48.473Z,2.04
2023-03-27T03:34:48.446Z,2.03
2023-03-27T03:35:49.571Z,2.03
2023-03-27T03:36:48.625Z,2.04
2023-03-27T03:37:50.702Z,2
2023-03-27T03:38:48.646Z,2
2023-03-27T03:39:48.547Z,1.99
2023-03-27T03:40:48.567Z,2
2023-03-27T03:41:48.669Z,2
2023-03-27T03:42:50.325Z,1.98
2023-03-27T03:43:48.756Z,1.96
2023-03-27T03:44:48.718Z,1.95
2023-03-27T03:45:49.299Z,2
2023-03-27T03:46:48.696Z,1.98
2023-03-27T03:47:48.750Z,2
2023-03-27T03:48:48.783Z,2.01
2023-03-27T03:49:48.757Z,1.99
2023-03-27T03:50:49.085Z,1.98
2023-03-27T03:52:03.545Z,1.97
2023-03-27T03:52:51.351Z,2
2023-03-27T03:53:51.678Z,2.01
2023-03-27T03:54:51.405Z,2
2023-03-27T03:55:52.090Z,1.99
2023-03-27T03:56:51.434Z,1.99
2023-03-27T03:57:51.428Z,2
2023-03-27T03:58:51.519Z,2.01
2023-03-27T03:59:51.413Z,1.99
2023-03-27T04:00:53.430Z,1.97
2023-03-27T04:01:51.700Z,1.98
2023-03-27T04:02:52.712Z,1.95
2023-03-27T04:03:51.590Z,1.96
2023-03-27T04:04:51.524Z,1.92
2023-03-27T04:05:51.582Z,1.94
2023-03-27T04:06:51.622Z,1.97
2023-03-27T04:07:51.844Z,1.95
2023-03-27T04:08:52.437Z,1.94
2023-03-27T04:09:51.632Z,1.95
2023-03-27T04:10:51.635Z,1.92
2023-03-27T04:11:51.678Z,1.94
2023-03-27T04:12:51.741Z,1.97
2023-03-27T04:13:51.824Z,1.96
2023-03-27T04:14:51.777Z,2.01
2023-03-27T04:15:51.796Z,2.01
2023-03-27T04:16:51.751Z,1.92
2023-03-27T04:17:51.780Z,1.8
2023-03-27T04:18:52.046Z,1.73
2023-03-27T04:19:54.746Z,1.7
2023-03-27T04:20:51.814Z,1.67
2023-03-27T04:21:51.822Z,1.75
2023-03-27T04:22:54.184Z,1.77
2023-03-27T04:23:52.071Z,1.81
2023-03-27T04:24:52.249Z,1.83
2023-03-27T04:25:51.959Z,1.87
2023-03-27T04:26:51.901Z,1.83
2023-03-27T04:27:51.935Z,1.89
2023-03-27T04:28:52.946Z,1.97
2023-03-27T04:29:51.953Z,1.91
2023-03-27T04:30:52.006Z,1.97
2023-03-27T04:31:52.166Z,1.98
2023-03-27T04:32:52.656Z,2.03
2023-03-27T04:33:52.262Z,2.08
2023-03-27T04:34:52.429Z,2.1
2023-03-27T04:36:06.913Z,2.14
2023-03-27T04:36:54.421Z,2.17
2023-03-27T04:37:54.424Z,2.15
2023-03-27T04:38:54.484Z,2.16
2023-03-27T04:39:54.487Z,2.19
2023-03-27T04:40:55.116Z,2.13
2023-03-27T04:41:54.597Z,2.16
2023-03-27T04:42:54.532Z,2.22
2023-03-27T04:43:55.084Z,2.23
2023-03-27T04:44:54.621Z,2.27
2023-03-27T04:45:54.700Z,2.31
2023-03-27T04:46:54.590Z,2.32
2023-03-27T04:47:54.748Z,2.31
2023-03-27T04:48:54.567Z,2.27
2023-03-27T04:49:54.618Z,2.28
2023-03-27T04:50:55.018Z,2.3
2023-03-27T04:51:55.184Z,2.34
2023-03-27T04:52:54.843Z,2.37
2023-03-27T04:53:55.038Z,2.34
2023-03-27T04:54:54.703Z,2.39
2023-03-27T04:55:54.736Z,2.42
2023-03-27T04:56:54.894Z,2.3
2023-03-27T04:57:54.898Z,2.29
2023-03-27T04:58:54.851Z,2.3
2023-03-27T04:59:54.789Z,2.3
2023-03-27T05:00:55.684Z,2.3
2023-03-27T05:01:54.827Z,2.32
2023-03-27T05:02:54.878Z,2.34
2023-03-27T05:03:54.905Z,2.36
2023-03-27T05:04:55.040Z,2.35
2023-03-27T05:05:55.197Z,2.34
2023-03-27T05:06:56.249Z,2.36
2023-03-27T05:07:54.867Z,2.4
2023-03-27T05:08:54.911Z,2.45
2023-03-27T05:09:54.914Z,2.47
2023-03-27T05:10:55.177Z,2.47
2023-03-27T05:11:54.915Z,2.45
2023-03-27T05:12:57.873Z,2.46
2023-03-27T05:13:55.126Z,2.46
2023-03-27T05:14:55.129Z,2.45
2023-03-27T05:15:55.325Z,2.45
2023-03-27T05:16:55.084Z,2.48
2023-03-27T05:17:55.270Z,2.46
2023-03-27T05:18:55.184Z,2.48
2023-03-27T05:19:55.192Z,2.51
2023-03-27T05:20:55.535Z,2.52
2023-03-27T05:21:55.206Z,2.55
2023-03-27T05:22:55.880Z,2.53
2023-03-27T05:23:55.236Z,2.5
2023-03-27T05:24:55.309Z,2.48
2023-03-27T05:25:59.632Z,2.49
2023-03-27T05:26:57.540Z,2.44
2023-03-27T05:27:57.544Z,2.4
2023-03-27T05:28:57.645Z,2.45
2023-03-27T05:29:57.524Z,2.5
2023-03-27T05:30:58.026Z,2.59
2023-03-27T05:31:59.489Z,2.62
2023-03-27T05:32:57.682Z,2.67
2023-03-27T05:33:57.646Z,2.74
2023-03-27T05:34:57.573Z,2.75
2023-03-27T05:35:59.703Z,2.8
2023-03-27T05:36:57.623Z,2.8
2023-03-27T05:37:57.648Z,2.86
2023-03-27T05:38:57.753Z,2.91
2023-03-27T05:39:57.650Z,2.91
2023-03-27T05:40:57.835Z,2.93
2023-03-27T05:41:57.754Z,2.81
2023-03-27T05:42:57.761Z,2.92
2023-03-27T05:43:57.658Z,3.01
2023-03-27T05:44:57.892Z,3.07
2023-03-27T05:45:57.764Z,3.06
2023-03-27T05:46:58.106Z,3.09
2023-03-27T05:47:59.242Z,3.13
2023-03-27T05:48:57.777Z,3.15
2023-03-27T05:49:57.750Z,3.16
2023-03-27T05:50:58.049Z,3.17
2023-03-27T05:51:57.753Z,3.11
2023-03-27T05:52:59.084Z,3.13
2023-03-27T05:53:57.952Z,3.2
2023-03-27T05:54:57.906Z,3.03
2023-03-27T05:56:02.903Z,3.05
2023-03-27T05:57:00.370Z,3.07
2023-03-27T05:58:00.220Z,3.12
2023-03-27T05:59:00.189Z,3.12
2023-03-27T06:00:00.241Z,3.19
2023-03-27T06:01:00.412Z,3.2
2023-03-27T06:02:00.220Z,3.22
2023-03-27T06:03:01.394Z,3.23
2023-03-27T06:04:00.369Z,3.28
2023-03-27T06:05:00.272Z,3.26
2023-03-27T06:06:00.431Z,3.28
2023-03-27T06:07:00.303Z,3.24
2023-03-27T06:08:00.324Z,3.23
2023-03-27T06:09:00.672Z,3.23
2023-03-27T06:10:00.364Z,3.21
2023-03-27T06:11:00.346Z,3.23
2023-03-27T06:12:00.397Z,3.14
2023-03-27T06:13:04.418Z,3.23
2023-03-27T06:14:01.126Z,3.17
2023-03-27T06:15:01.099Z,2.94
2023-03-27T06:16:01.483Z,2.98
2023-03-27T06:17:01.052Z,2.92
2023-03-27T06:18:01.244Z,2.93
2023-03-27T06:19:01.136Z,2.94
2023-03-27T06:20:01.133Z,3.01
2023-03-27T06:21:01.151Z,3.02
2023-03-27T06:22:01.244Z,3.04
2023-03-27T06:23:01.932Z,3.05
2023-03-27T06:24:01.407Z,3.11
2023-03-27T06:25:01.312Z,3
2023-03-27T06:26:01.261Z,3.06
2023-03-27T06:27:01.256Z,3.03
2023-03-27T06:28:01.811Z,2.96
2023-03-27T06:29:01.498Z,3.02
2023-03-27T06:30:05.393Z,3.04
2023-03-27T06:31:05.490Z,2.94
2023-03-27T06:32:05.120Z,2.94
2023-03-27T06:33:05.420Z,2.79
2023-03-27T06:34:04.963Z,2.8
2023-03-27T06:35:05.303Z,2.8
2023-03-27T06:36:05.537Z,2.76
2023-03-27T06:37:05.002Z,2.79
2023-03-27T06:38:05.511Z,2.75
2023-03-27T06:39:05.086Z,2.81
2023-03-27T06:40:05.602Z,2.77
2023-03-27T06:41:05.308Z,2.75
2023-03-27T06:42:05.027Z,2.76
2023-03-27T06:43:06.494Z,2.86
2023-03-27T06:44:05.111Z,2.91
2023-03-27T06:45:05.639Z,2.93
2023-03-27T06:46:05.618Z,2.98
2023-03-27T06:47:05.143Z,2.95
2023-03-27T06:48:13.775Z,2.91
2023-03-27T06:49:05.808Z,2.91
2023-03-27T06:50:06.485Z,2.92
2023-03-27T06:51:06.041Z,2.93
2023-03-27T06:52:07.269Z,2.96
2023-03-27T06:53:15.853Z,2.93
2023-03-27T06:54:10.640Z,2.91
2023-03-27T06:55:14.977Z,2.91
2023-03-27T06:56:12.077Z,2.99
2023-03-27T06:57:12.136Z,2.94
2023-03-27T06:58:12.414Z,2.97
2023-03-27T06:59:12.081Z,2.97
2023-03-27T07:00:13.394Z,3.07
2023-03-27T07:01:12.228Z,3.01
2023-03-27T07:02:12.455Z,2.95
2023-03-27T07:03:12.371Z,2.95
2023-03-27T07:04:12.204Z,2.95
2023-03-27T07:05:12.681Z,2.94
2023-03-27T07:06:12.262Z,2.93
2023-03-27T07:07:12.186Z,2.92
2023-03-27T07:08:21.689Z,3.09
2023-03-27T07:09:14.718Z,2.96
2023-03-27T07:10:14.931Z,2.93
2023-03-27T07:11:14.972Z,2.97
2023-03-27T07:12:14.695Z,2.89
2023-03-27T07:13:14.733Z,2.88
2023-03-27T07:14:14.804Z,2.92
2023-03-27T07:15:15.084Z,2.91
2023-03-27T07:16:14.935Z,2.96
2023-03-27T07:17:14.919Z,2.94
2023-03-27T07:18:14.859Z,2.98
2023-03-27T07:19:14.920Z,2.9
2023-03-27T07:20:14.858Z,2.95
2023-03-27T07:21:14.867Z,3.06
2023-03-27T07:22:14.979Z,3.11
2023-03-27T07:23:14.840Z,2.96
2023-03-27T07:24:14.902Z,2.93
2023-03-27T07:25:15.058Z,2.98
2023-03-27T07:26:14.901Z,3.12
2023-03-27T07:27:14.926Z,3.14
2023-03-27T07:28:14.991Z,3.04
2023-03-27T07:29:15.443Z,3.01
2023-03-27T07:30:15.227Z,3.04
2023-03-27T07:31:32.516Z,2.98
2023-03-27T07:32:29.717Z,2.99
2023-03-27T07:33:17.911Z,3.09
2023-03-27T07:34:17.467Z,3.17
2023-03-27T07:35:17.508Z,3.08
2023-03-27T07:36:17.466Z,3.01
2023-03-27T07:37:17.403Z,2.99
2023-03-27T07:38:18.298Z,3.19
2023-03-27T07:39:17.489Z,3.16
2023-03-27T07:40:19.923Z,3.07
2023-03-27T07:41:18.035Z,3.03
2023-03-27T07:42:18.084Z,3.03
2023-03-27T07:43:18.055Z,2.95
2023-03-27T07:44:18.609Z,3.02
2023-03-27T07:45:18.735Z,2.98
2023-03-27T07:46:18.159Z,2.93
2023-03-27T07:47:18.137Z,2.96
2023-03-27T07:48:18.119Z,2.96
2023-03-27T07:49:18.300Z,2.8
2023-03-27T07:50:20.585Z,2.74
2023-03-27T07:51:18.149Z,2.73
2023-03-27T07:52:18.308Z,2.88
2023-03-27T07:53:33.362Z,2.91
2023-03-27T07:54:21.392Z,2.81
2023-03-27T07:55:21.418Z,2.69
2023-03-27T07:56:22.236Z,2.65
2023-03-27T07:57:21.491Z,2.69
2023-03-27T07:58:21.409Z,2.82
2023-03-27T07:59:21.470Z,2.98
2023-03-27T08:00:22.219Z,2.99
2023-03-27T08:01:21.434Z,2.87
2023-03-27T08:02:21.522Z,2.93
2023-03-27T08:03:21.610Z,2.9
2023-03-27T08:04:21.530Z,2.93
2023-03-27T08:05:21.783Z,2.76
2023-03-27T08:06:21.702Z,2.7
2023-03-27T08:07:21.551Z,2.61
2023-03-27T08:08:21.696Z,2.71
2023-03-27T08:09:21.517Z,2.67
2023-03-27T08:10:21.710Z,2.59
2023-03-27T08:11:30.195Z,2.58
2023-03-27T08:12:22.363Z,2.68
2023-03-27T08:13:22.768Z,2.65
2023-03-27T08:14:22.267Z,2.62
2023-03-27T08:15:22.361Z,2.63
2023-03-27T08:16:22.308Z,2.59
2023-03-27T08:17:24.850Z,2.68
2023-03-27T08:18:22.332Z,2.65
2023-03-27T08:19:22.478Z,2.65
2023-03-27T08:20:23.242Z,2.56
2023-03-27T08:21:22.499Z,2.5
2023-03-27T08:22:22.813Z,2.5
2023-03-27T08:23:22.486Z,2.41
2023-03-27T08:24:22.396Z,2.52
2023-03-27T08:25:22.894Z,2.4
2023-03-27T08:26:22.519Z,2.49
2023-03-27T08:27:22.732Z,2.53
2023-03-27T08:28:22.573Z,2.5
2023-03-27T08:29:23.255Z,2.48
2023-03-27T08:30:22.501Z,2.47
2023-03-27T08:31:22.846Z,2.45
2023-03-27T08:32:22.569Z,2.51
2023-03-27T08:33:22.845Z,2.46
2023-03-27T08:34:22.596Z,2.5
2023-03-27T08:35:22.613Z,2.49
2023-03-27T08:36:22.966Z,2.48
2023-03-27T08:37:22.668Z,2.55
2023-03-27T08:38:26.999Z,2.66
2023-03-27T08:39:24.168Z,2.58
2023-03-27T08:40:26.211Z,2.52
2023-03-27T08:41:26.279Z,2.58
2023-03-27T08:42:32.973Z,2.66
2023-03-27T08:43:36.116Z,2.65
2023-03-27T08:44:29.222Z,2.55
2023-03-27T08:45:40.910Z,2.47
2023-03-27T08:47:38.506Z,2.51
2023-03-27T08:49:46.463Z,2.58
2023-03-27T08:50:46.243Z,2.6
2023-03-27T08:51:48.884Z,2.49
2023-03-27T08:52:46.455Z,2.53
2023-03-27T08:53:52.046Z,2.57
2023-03-27T08:54:51.552Z,2.61
2023-03-27T08:55:48.316Z,2.8
2023-03-27T08:56:48.740Z,2.81
2023-03-27T08:57:48.574Z,3.01
2023-03-27T08:58:48.494Z,2.88
2023-03-27T08:59:48.735Z,2.77
2023-03-27T09:00:53.705Z,2.76
2023-03-27T09:06:10.714Z,2.88
2023-03-27T09:08:10.743Z,2.96
2023-03-27T09:09:15.758Z,2.94
2023-03-27T09:13:18.471Z,3.13
2023-03-27T09:14:25.636Z,3.1
2023-03-27T09:15:20.936Z,3
2023-03-27T09:16:28.375Z,2.95
2023-03-27T09:17:23.189Z,3.25
2023-03-27T09:18:22.317Z,3.33
2023-03-27T09:20:33.268Z,3.31
2023-03-27T09:24:33.608Z,3.42
2023-03-27T09:25:37.304Z,3.44
2023-03-27T09:26:36.725Z,3.36
2023-03-27T09:27:34.979Z,3.31
2023-03-27T09:28:39.770Z,3.52
2023-03-27T09:29:38.352Z,3.43
2023-03-27T09:30:36.041Z,3.5
2023-03-27T09:31:42.630Z,3.56
2023-03-27T09:32:39.366Z,3.68
2023-03-27T09:33:38.939Z,3.53
2023-03-27T09:34:38.978Z,3.57
2023-03-27T09:35:39.204Z,3.72
2023-03-27T09:36:39.044Z,3.56
2023-03-27T09:37:39.041Z,3.62
2023-03-27T09:38:41.417Z,3.58
2023-03-27T09:39:41.884Z,3.51
2023-03-27T09:42:42.837Z,3.22
2023-03-27T09:43:45.829Z,3.09
2023-03-27T09:44:44.081Z,2.89
2023-03-27T09:45:44.310Z,2.8
2023-03-27T09:46:44.411Z,2.81
2023-03-27T09:48:48.466Z,2.69
2023-03-27T09:49:47.855Z,2.68
2023-03-27T09:50:46.475Z,2.59
2023-03-27T09:51:52.074Z,2.55
2023-03-27T09:52:48.343Z,2.45
2023-03-27T09:54:53.595Z,2.54
2023-03-27T09:55:56.544Z,2.58
2023-03-27T09:57:55.126Z,2.53
2023-03-27T09:58:53.623Z,2.35
2023-03-27T10:00:00.796Z,2.39
2023-03-27T10:01:11.551Z,2.39
2023-03-27T10:01:59.679Z,2.39
2023-03-27T10:03:03.210Z,2.33
2023-03-27T10:04:00.919Z,2.36
2023-03-27T10:05:02.537Z,2.4
2023-03-27T10:06:08.144Z,2.35
2023-03-27T10:07:06.523Z,2.34
2023-03-27T10:11:17.273Z,2.37
2023-03-27T10:12:20.835Z,2.27
2023-03-27T10:13:26.111Z,2.33
2023-03-27T10:14:19.828Z,2.31
2023-03-27T10:16:21.517Z,2.26
2023-03-27T10:18:24.768Z,2.27
2023-03-27T10:19:25.981Z,2.18
2023-03-27T10:20:22.844Z,2.16
2023-03-27T10:21:31.476Z,2.21
2023-03-27T10:22:28.941Z,2.25
2023-03-27T10:23:30.077Z,2.32
2023-03-27T10:24:34.760Z,2.38
2023-03-27T10:25:36.356Z,2.54
2023-03-27T10:26:36.631Z,2.73
2023-03-27T10:27:34.781Z,2.73
2023-03-27T10:28:35.088Z,2.89
2023-03-27T10:29:34.651Z,2.78
2023-03-27T10:30:34.775Z,2.97
2023-03-27T10:31:36.717Z,3.01
2023-03-27T10:32:46.251Z,2.88
2023-03-27T10:33:39.197Z,3.13
2023-03-27T10:34:39.024Z,2.94
2023-03-27T10:35:40.024Z,2.98
2023-03-27T10:36:38.277Z,3.07
2023-03-27T10:37:40.216Z,2.82
2023-03-27T10:38:40.638Z,2.75
2023-03-27T10:39:38.173Z,2.63
2023-03-27T10:40:39.335Z,2.5
2023-03-27T10:41:38.967Z,2.33
2023-03-27T10:42:38.126Z,2.29
2023-03-27T10:43:41.105Z,2.28
2023-03-27T10:44:38.551Z,2.28
2023-03-27T10:45:43.681Z,2.29
2023-03-27T10:46:40.961Z,2.36
2023-03-27T10:47:45.497Z,2.27
2023-03-27T10:49:47.900Z,2.26
2023-03-27T10:50:49.834Z,2.21
2023-03-27T10:51:51.302Z,2.34
2023-03-27T10:53:56.234Z,2.45
2023-03-27T10:56:04.698Z,2.4
2023-03-27T10:57:10.054Z,2.4
2023-03-27T10:58:00.008Z,2.36
2023-03-27T10:59:01.868Z,2.3
2023-03-27T11:00:10.274Z,2.44
2023-03-27T11:01:05.534Z,2.39
2023-03-27T11:02:10.759Z,2.38
2023-03-27T11:03:09.498Z,2.36
2023-03-27T11:05:13.579Z,2.38
2023-03-27T11:06:14.707Z,2.41
2023-03-27T11:07:16.439Z,2.48
2023-03-27T11:08:16.037Z,2.66
2023-03-27T11:09:15.758Z,2.64
2023-03-27T11:12:21.026Z,2.66
2023-03-27T11:17:32.223Z,3.12
2023-03-27T11:18:37.134Z,2.99
2023-03-27T11:20:42.685Z,2.94
2023-03-27T11:21:45.639Z,2.98
2023-03-27T11:22:48.060Z,3.08
2023-03-27T11:23:55.090Z,3.15
2023-03-27T11:24:51.926Z,3.14
2023-03-27T11:25:50.779Z,3.14
2023-03-27T11:26:51.199Z,3.19
2023-03-27T11:35:12.362Z,3.05
2023-03-27T11:37:15.631Z,2.89
2023-03-27T11:38:15.012Z,2.91
2023-03-27T11:41:20.342Z,3.2
2023-03-27T11:42:27.784Z,3.04
2023-03-27T11:43:24.275Z,2.99
2023-03-27T11:44:25.143Z,3.07
2023-03-27T11:45:24.869Z,2.99
2023-03-27T11:56:54.893Z,2.14
2023-03-27T11:58:03.546Z,2.21
2023-03-27T12:04:17.974Z,2.38
2023-03-27T12:10:29.416Z,2.73
2023-03-27T12:11:26.217Z,2.62
2023-03-27T12:27:06.336Z,2.12
2023-03-27T12:35:22.117Z,2.37
2023-03-27T12:36:20.993Z,2.11
2023-03-27T12:37:22.526Z,2.02
2023-03-27T12:39:27.737Z,1.78
2023-03-27T12:40:28.564Z,1.69
2023-03-27T12:41:25.580Z,1.53
2023-03-27T12:43:29.996Z,1.47
2023-03-27T12:44:30.301Z,1.46
2023-03-27T12:45:26.584Z,1.49
2023-03-27T12:47:29.148Z,1.44
2023-03-27T12:48:27.847Z,1.45
2023-03-27T12:50:32.848Z,1.54
2023-03-27T12:52:30.955Z,1.66
2023-03-27T12:54:35.839Z,1.94
2023-03-27T12:55:34.275Z,1.89
2023-03-27T12:56:34.255Z,1.85
2023-03-27T12:58:33.896Z,1.9
2023-03-27T12:59:40.054Z,1.94
2023-03-27T13:00:36.414Z,1.93
2023-03-27T13:10:14.984Z,1.92
2023-03-27T13:15:27.794Z,2.04
2023-03-27T13:19:38.970Z,2.11
2023-03-27T13:26:01.655Z,1.99
2023-03-27T13:27:06.646Z,1.97
2023-03-27T13:29:16.194Z,2.11
2023-03-27T13:36:26.523Z,2.22
2023-03-27T13:39:40.984Z,2.26
2023-03-27T13:40:36.775Z,2.41
2023-03-27T13:43:35.038Z,2.27
2023-03-27T13:44:41.476Z,2.29
2023-03-27T13:45:51.857Z,2.24
2023-03-27T13:46:43.143Z,2.21
2023-03-27T13:56:09.435Z,2.26
2023-03-27T14:04:29.366Z,2.42
2023-03-27T14:07:47.694Z,2.45
2023-03-27T14:21:12.986Z,2.4
2023-03-27T14:25:26.118Z,2.32
2023-03-27T14:26:22.674Z,2.31
2023-03-27T14:27:20.773Z,2.27
2023-03-27T14:29:24.623Z,2.31
2023-03-27T14:30:26.185Z,2.33
2023-03-27T14:31:23.621Z,2.46
2023-03-27T14:32:22.488Z,2.38
2023-03-27T14:33:22.469Z,2.48
2023-03-27T14:34:23.185Z,2.48
2023-03-27T14:35:27.473Z,2.52
2023-03-27T14:36:25.152Z,2.47
2023-03-27T14:37:25.725Z,2.31
2023-03-27T14:38:25.192Z,2.39
2023-03-27T14:39:25.077Z,2.51
2023-03-27T14:40:27.340Z,2.57
2023-03-27T14:41:23.923Z,2.5
2023-03-27T14:42:30.436Z,2.44
2023-03-27T14:43:29.280Z,2.45
2023-03-27T14:44:32.071Z,2.64
2023-03-27T14:45:33.157Z,2.67
2023-03-27T14:46:29.811Z,2.56
2023-03-27T14:47:30.492Z,2.57
2023-03-27T14:48:35.285Z,2.67
2023-03-27T14:50:35.454Z,2.59
2023-03-27T14:51:36.021Z,2.66
2023-03-27T14:52:35.039Z,2.63
2023-03-27T14:53:35.813Z,2.57
2023-03-27T14:54:44.651Z,2.46
2023-03-27T14:55:36.479Z,2.53
2023-03-27T14:56:38.051Z,2.54
2023-03-27T14:57:35.471Z,2.58
2023-03-27T14:58:35.872Z,2.53
2023-03-27T14:59:37.429Z,2.63
2023-03-27T15:00:36.743Z,2.52
2023-03-27T15:01:35.584Z,2.62
2023-03-27T15:02:35.719Z,2.48
2023-03-27T15:03:36.791Z,2.47
2023-03-27T15:04:40.628Z,2.58
2023-03-27T15:06:38.646Z,2.57
2023-03-27T15:07:38.571Z,2.67
2023-03-27T15:08:39.196Z,2.54
2023-03-27T15:09:38.573Z,2.6
2023-03-27T15:10:38.582Z,2.45
2023-03-27T15:11:38.920Z,2.54
2023-03-27T15:12:42.778Z,2.47
2023-03-27T15:13:39.474Z,2.44
2023-03-27T15:14:40.155Z,2.44
2023-03-27T15:15:41.102Z,2.48
2023-03-27T15:16:40.331Z,2.42
2023-03-27T15:17:39.682Z,2.39
2023-03-27T15:19:47.272Z,2.44
2023-03-27T15:20:44.595Z,2.41
2023-03-27T15:21:53.210Z,2.34
2023-03-27T15:22:48.912Z,2.33
2023-03-27T15:26:55.011Z,2.25
2023-03-27T15:27:54.798Z,2.29
2023-03-27T15:29:57.893Z,2.29
2023-03-27T15:30:57.565Z,2.29
2023-03-27T15:31:56.453Z,2.27
2023-03-27T15:32:56.622Z,2.21
2023-03-27T15:34:58.633Z,2.24
2023-03-27T15:35:56.636Z,2.26
2023-03-27T15:36:59.895Z,2.25
2023-03-27T15:37:56.414Z,2.21
2023-03-27T15:38:58.601Z,2.21
2023-03-27T15:42:06.038Z,2.19
2023-03-27T15:45:09.253Z,2.16
2023-03-27T15:48:22.884Z,2.2
2023-03-27T15:49:19.334Z,2.15
2023-03-27T15:50:19.098Z,2.12
2023-03-27T15:52:30.461Z,2.08
2023-03-27T15:54:29.653Z,2.08
2023-03-27T15:57:31.105Z,1.92
2023-03-27T15:59:36.182Z,1.71
2023-03-27T16:00:44.150Z,1.65
2023-03-27T16:02:47.320Z,1.65
2023-03-27T16:03:46.026Z,1.63
2023-03-27T16:04:55.915Z,1.63
2023-03-27T16:05:48.807Z,1.62
2023-03-27T16:06:52.391Z,1.61
2023-03-27T16:07:49.312Z,1.6
2023-03-27T16:08:49.080Z,1.63
2023-03-27T16:09:54.363Z,1.62
2023-03-27T16:10:51.006Z,1.64
2023-03-27T16:11:51.845Z,1.6
2023-03-27T16:13:01.085Z,1.6
2023-03-27T16:13:54.062Z,1.61
2023-03-27T16:14:53.962Z,1.61
2023-03-27T16:15:56.738Z,1.59
2023-03-27T16:16:54.294Z,1.59
2023-03-27T16:17:55.067Z,1.59
2023-03-27T16:18:53.850Z,1.58
2023-03-27T16:19:58.062Z,1.58
2023-03-27T16:21:05.356Z,1.56
2023-03-27T16:21:57.505Z,1.57
2023-03-27T16:22:57.188Z,1.56
2023-03-27T16:23:57.186Z,1.55
2023-03-27T16:24:57.755Z,1.5
2023-03-27T16:25:57.777Z,1.51
2023-03-27T16:26:57.363Z,1.49
2023-03-27T16:27:57.510Z,1.47
2023-03-27T16:28:59.573Z,1.46
2023-03-27T16:29:57.339Z,1.45
2023-03-27T16:30:57.317Z,1.41
2023-03-27T16:31:57.535Z,1.42
2023-03-27T16:32:57.451Z,1.42
2023-03-27T16:33:57.313Z,1.42
2023-03-27T16:34:57.469Z,1.42
2023-03-27T16:35:57.580Z,1.42
2023-03-27T16:36:57.361Z,1.4
2023-03-27T16:37:57.538Z,1.4
2023-03-27T16:38:57.515Z,1.4
2023-03-27T16:39:57.528Z,1.38
2023-03-27T16:40:57.462Z,1.38
2023-03-27T16:41:57.497Z,1.37
2023-03-27T16:42:57.492Z,1.35
2023-03-27T16:43:57.585Z,1.36
2023-03-27T16:44:57.542Z,1.34
2023-03-27T16:45:57.727Z,1.34
2023-03-27T16:46:57.601Z,1.34
2023-03-27T16:47:57.634Z,1.31
2023-03-27T16:48:57.666Z,1.28
2023-03-27T16:50:10.339Z,1.3
2023-03-27T16:50:58.180Z,1.28
2023-03-27T16:51:58.215Z,1.25
2023-03-27T16:52:58.212Z,1.24
2023-03-27T16:53:58.241Z,1.21
2023-03-27T16:54:58.342Z,1.22
2023-03-27T16:55:58.419Z,1.2
2023-03-27T16:56:58.329Z,1.21
2023-03-27T16:57:58.281Z,1.18
2023-03-27T16:58:58.319Z,1.16
2023-03-27T16:59:58.340Z,1.15
2023-03-27T17:00:58.377Z,1.13
2023-03-27T17:01:58.386Z,1.12
2023-03-27T17:02:58.395Z,1.1
2023-03-27T17:03:58.397Z,1.08
2023-03-27T17:04:58.525Z,1.09
2023-03-27T17:05:59.101Z,1.09
2023-03-27T17:06:58.404Z,1.08
2023-03-27T17:07:58.404Z,1.03
2023-03-27T17:08:58.517Z,0.99
2023-03-27T17:09:58.505Z,0.98
2023-03-27T17:11:02.588Z,1.04
2023-03-27T17:11:59.473Z,0.98
2023-03-27T17:12:59.309Z,0.98
2023-03-27T17:13:59.284Z,0.95
2023-03-27T17:14:59.418Z,0.98
2023-03-27T17:15:59.944Z,0.94
2023-03-27T17:16:59.564Z,0.94
2023-03-27T17:17:59.466Z,0.92
2023-03-27T17:18:59.698Z,0.93
2023-03-27T17:19:59.474Z,0.94
2023-03-27T17:20:59.459Z,0.93
2023-03-27T17:21:59.476Z,1.04
2023-03-27T17:22:59.548Z,1
2023-03-27T17:23:59.726Z,0.97
2023-03-27T17:24:59.727Z,0.99
2023-03-27T17:26:00.483Z,0.93